createdAt,value
2022-10-01T00:03:54.830Z,7.01
2022-10-01T00:18:57.315Z,6.99
2022-10-01T00:33:59.925Z,7.09
2022-10-01T00:49:04.157Z,6.69
2022-10-01T01:04:16.164Z,6.69
2022-10-01T01:19:27.212Z,6.68
2022-10-01T01:34:29.482Z,6.73
2022-10-01T01:49:31.323Z,6.74
2022-10-01T02:04:37.829Z,6.73
2022-10-01T02:19:41.142Z,6.69
2022-10-01T02:34:43.126Z,7.08
2022-10-01T02:49:44.957Z,7.18
2022-10-01T03:04:49.734Z,7.44
2022-10-01T03:19:51.583Z,7.78
2022-10-01T03:34:53.424Z,7.72
2022-10-01T03:49:55.268Z,7.67
2022-10-01T04:04:57.117Z,7.98
2022-10-01T04:20:00.201Z,7.97
2022-10-01T04:35:04.303Z,7.85
2022-10-01T04:50:06.274Z,7.70
2022-10-01T05:05:08.220Z,7.83
2022-10-01T05:20:11.401Z,8.06
2022-10-01T05:35:13.252Z,8.34
2022-10-01T05:50:15.344Z,8.60
2022-10-01T06:05:17.218Z,8.79
2022-10-01T06:20:20.559Z,8.94
2022-10-01T06:35:22.429Z,9.12
2022-10-01T06:50:24.336Z,8.68
2022-10-01T07:05:26.275Z,8.00
2022-10-01T07:20:28.181Z,7.84
2022-10-01T07:35:30.025Z,7.94
2022-10-01T07:50:31.912Z,7.88
2022-10-01T08:05:34.454Z,7.70
2022-10-01T08:20:36.314Z,7.77
2022-10-01T08:35:38.564Z,7.90
2022-10-01T08:51:03.066Z,8.01
2022-10-01T09:06:21.467Z,8.21
2022-10-01T09:21:25.039Z,8.18
2022-10-01T09:36:41.455Z,8.35
2022-10-01T09:51:44.986Z,8.59
2022-10-01T10:06:47.150Z,8.49
2022-10-01T10:21:52.758Z,8.47
2022-10-01T10:36:58.765Z,8.55
2022-10-01T10:52:01.171Z,8.93
2022-10-01T11:07:03.020Z,9.53
2022-10-01T11:22:23.182Z,10.02
2022-10-01T11:37:28.965Z,9.93
2022-10-01T11:52:33.889Z,9.83
2022-10-01T12:07:38.242Z,9.89
2022-10-01T12:22:40.082Z,9.90
2022-10-01T12:38:00.963Z,9.85
2022-10-01T12:53:11.312Z,10.08
2022-10-01T13:08:16.242Z,10.51
2022-10-01T13:23:18.595Z,10.54
2022-10-01T13:38:29.197Z,10.92
2022-10-01T13:53:43.309Z,11.25
2022-10-01T14:08:52.560Z,11.42
2022-10-01T14:24:05.189Z,11.31
2022-10-01T14:39:13.199Z,11.28
2022-10-01T14:54:15.041Z,11.11
2022-10-01T15:09:18.890Z,11.12
2022-10-01T15:24:33.587Z,11.25
2022-10-01T15:39:39.318Z,11.10
2022-10-01T15:54:41.577Z,11.03
2022-10-01T16:09:50.687Z,11.14
2022-10-01T16:24:53.532Z,11.13
2022-10-01T16:39:55.418Z,11.06
2022-10-01T16:54:57.288Z,10.91
2022-10-01T17:09:59.167Z,10.63
2022-10-01T17:25:01.058Z,10.51
2022-10-01T17:40:02.912Z,10.56
2022-10-01T17:55:04.996Z,10.55
2022-10-01T18:10:07.702Z,10.54
2022-10-01T18:25:09.739Z,10.54
2022-10-01T18:40:30.388Z,10.53
2022-10-01T18:55:34.144Z,10.58
2022-10-01T19:10:37.858Z,10.45
2022-10-01T19:25:43.762Z,10.53
2022-10-01T19:40:51.375Z,10.59
2022-10-01T19:55:53.411Z,10.61
2022-10-01T20:10:58.613Z,10.71
2022-10-01T20:26:00.534Z,10.75
2022-10-01T20:41:09.686Z,10.81
2022-10-01T20:56:30.958Z,10.80
2022-10-01T21:11:34.399Z,10.77
2022-10-01T21:26:42.517Z,10.86
2022-10-01T21:41:50.080Z,10.91
2022-10-01T21:56:57.783Z,10.93
2022-10-01T22:12:00.135Z,10.89
2022-10-01T22:27:20.679Z,11.00
2022-10-01T22:42:25.038Z,11.06
2022-10-01T22:57:43.060Z,11.20
2022-10-01T23:13:05.297Z,11.14
2022-10-01T23:28:23.090Z,11.26
2022-10-01T23:43:29.605Z,11.20
2022-10-01T23:58:33.090Z,10.97
